• Join FlightAware (Why Join?)
  • Login
  • US Flag 
02:43AM EDT


 

Airport Tracker/Info


-or-


 

Live Flight TrackerFlight Track Log ✈ LBQ792 ✈ 29-Apr-2013 ✈ KIAG - KAGC

Flight Track Log - Related Links

Times and Time Zones

All times are in EDT time to prevent confusion due to time zone crossing. See the LBQ792 flight status page for this flight to view local times or setup timezone preferences in your user account.

Time Position Orientation Groundspeed Altitude Reporting Facility
EDT Latitude Longitude Course Direction KTS MPH feet Rate Location/Type
11:40PM 43.0500 -78.9167 160° South 147 169 3,200  Level Buffalo TRACON
11:41PM 43.0167 -78.9333 200° South 156 180 4,600 1,200 Climbing Buffalo TRACON
11:42PM 42.9800 -78.9400 188° South 184 212 5,500 1,200 Climbing Cleveland Center
11:43PM 42.9364 -78.9556 195° South 178 205 6,900 1,380 Climbing Cleveland Center
11:44PM 42.8886 -78.9653 188° South 165 190 8,300 1,200 Climbing Cleveland Center
11:45PM 42.8431 -78.9747 189° South 165 190 9,400 1,080 Climbing Cleveland Center
11:46PM 42.7972 -78.9817 186° South 165 190 10,500 1,080 Climbing Cleveland Center
11:47PM 42.7517 -78.9997 196° South 165 190 11,600 1,020 Climbing Cleveland Center
11:48PM 42.7019 -79.0208 197° South 170 196 12,600 1,080 Climbing Cleveland Center
11:49PM 42.6500 -79.0419 197° South 182 209 13,800 1,140 Climbing Cleveland Center
11:50PM 42.5961 -79.0631 196° South 193 222 14,900 1,080 Climbing Cleveland Center
11:51PM 42.5444 -79.0867 199° South 199 229 16,000 1,020 Climbing Cleveland Center
11:52PM 42.4883 -79.1078 196° South 205 236 17,000 900 Climbing Cleveland Center
11:53PM 42.4303 -79.1289 195° South 211 243 17,800 840 Climbing Cleveland Center
11:54PM 42.3742 -79.1556 199° South 211 243 18,700 840 Climbing Cleveland Center
11:55PM 42.3203 -79.1764 196° South 211 243 19,500 600 Climbing Cleveland Center
11:56PM 42.2600 -79.1972 194° South 211 243 20,000 240 Climbing Cleveland Center
11:57PM 42.1981 -79.2239 198° South 221 254 20,000  Level Cleveland Center
11:58PM 42.1314 -79.2475 195° South 242 278 20,000  Level Cleveland Center
12:00AM 42.0588 -79.2754 196° South  Level FlightAware Approximate
12:07AM 41.6523 -79.4302 196° South  Level FlightAware Approximate
12:08AM 41.5941 -79.4520 194° South  Level FlightAware Approximate
12:09AM 41.5366 -79.4756 207° Southwest  Level FlightAware Approximate
12:10AM 41.4812 -79.5067 195° South  Level FlightAware Approximate
12:11AM 41.4229 -79.5276 195° South  Level FlightAware Approximate
12:12AM 41.3646 -79.5484 195° South  Level FlightAware Approximate
12:13AM 41.3063 -79.5692 195° South  Level FlightAware Approximate
12:14AM 41.2461 -79.5867 192° South  Level FlightAware Approximate
12:15AM 41.1862 -79.6061 199° South  Level FlightAware Approximate
12:16AM 41.1279 -79.6321 199° South  Level FlightAware Approximate
12:17AM 41.0695 -79.6580 199° South  Level FlightAware Approximate
12:18AM 41.0100 -79.6787 193° South  Level FlightAware Approximate
12:19AM 40.9500 -79.6967 193° South  Level FlightAware Approximate
12:20AM 40.8899 -79.7147 193° South  Level FlightAware Approximate
12:21AM 40.8321 -79.7423 201° Southwest  Level FlightAware Approximate
12:22AM 40.7733 -79.7663 196° South  Level FlightAware Approximate
12:23AM 40.7141 -79.7885 196° South  Level FlightAware Approximate
12:24AM 40.6547 -79.8096 194° South  Level FlightAware Approximate
12:25AM 40.5950 -79.8295 194° South  Level FlightAware Approximate
12:26AM 40.5353 -79.8493 194° South  Level FlightAware Approximate
12:27AM 40.4785 -79.8721 191° South  Level FlightAware Approximate
12:28AM 40.4187 -79.8906 201° Southwest  Level FlightAware Approximate
12:29AM 40.3608 -79.9167 180° South  Level FlightAware Approximate
12:30AM 40.3500 -79.9167 180° South  Level FlightAware Approximate
12:31AM 40.3544 -79.9302 180° South  Level Estimated
12:32AM 40.3544 -79.9302 180° South  Level Estimated
12:33AM 40.3544 -79.9302 180° South  Level Estimated
12:34AM 40.3544 -79.9302 180° South  Level Estimated